Weather at Nakhon Phanom Airport

Public forecast

Using degrees Celsius for public forecast. Weather courtesy of forecast.io.

Current aviation weather report (METAR) for Nakhon Phanom Airport

Report is more than 6 hours old.

Retrieved 2021/06/15 13:00 UTC (8 hours ago):

VTUW 151300Z 20005KT 9999 FEW030 28/23 Q1006 NOSIG

Aviation forecast (TAF) for Nakhon Phanom Airport

Retrieved 2021/06/15 18:00 UTC (3 hours ago):

TAF VTUW 151700Z 1518/1618 24005KT 9000 FEW030 TEMPO 1607/1613 VRB15KT 4000 TSRA FEW018CB BKN020 BKN080